»·PEaware :: N611G KPSP-KSAN

N611G :: KPSP-KSAN

FLIGHT INFORMATION

Flight Status: Arrived
Operator: Privately registered:
United States
More flights under this callsign
Pilot: Lance W. (1958)
Aircraft: Unknown
(LNC4)
More flights by this aircraft type
Origin: KPSP Palm Springs Intl
United States
Destination: KSAN San Diego Intl-Lindbergh
United States
More flights between these airports :: More routes between these airports
Route: +FF
File this flight plan on PilotEdge
Remarks: / V /
Altitude:
(Current/Filed)
4,500ft
Speed:
(Current/Filed)
180kts
Departed: 27-Jul-13 07:38 PM
Arrived: 27-Jul-13 08:12 PM
Distance/Time
Traveled:
74nm/0:34
Distance/Time
To Go:
Arrived

Flight Plot

Page will automatically refresh every two minutes.

Flight plan parsing failed; only flown route is shown


Map Options




Map Legend


Flown Route
Filed Route
Departure Airport
Arrival Airport
Navaid (VOR, NDB)
Fix

Horizontal Profiles

Position Reports

Time Latitude Longitude Heading Altitude Ground
Speed
27-Jul-13 19:06 33.825345 -116.509133 180 480ft 0kts
27-Jul-13 19:07 33.825345 -116.509133 180 480ft 0kts
27-Jul-13 19:08 33.825345 -116.509133 180 480ft 0kts
27-Jul-13 19:09 33.825345 -116.509133 180 480ft 0kts
27-Jul-13 19:10 33.825344 -116.509133 180 480ft 0kts
27-Jul-13 19:11 33.825344 -116.509133 180 480ft 0kts
27-Jul-13 19:12 33.825344 -116.509133 180 480ft 0kts
27-Jul-13 19:13 33.825344 -116.509133 180 480ft 0kts
27-Jul-13 19:14 33.825344 -116.509133 180 480ft 0kts
27-Jul-13 19:15 33.825344 -116.509133 180 480ft 0kts
27-Jul-13 19:16 33.825344 -116.509133 180 480ft 0kts
27-Jul-13 19:17 33.825344 -116.509133 180 480ft 0kts
27-Jul-13 19:18 33.825344 -116.509133 180 480ft 0kts
27-Jul-13 19:19 33.825344 -116.509133 180 480ft 0kts
27-Jul-13 19:20 33.825344 -116.509133 180 480ft 0kts
27-Jul-13 19:21 33.825344 -116.509133 180 480ft 0kts
27-Jul-13 19:22 33.825344 -116.509133 180 480ft 0kts
27-Jul-13 19:23 33.825344 -116.509133 180 480ft 0kts
27-Jul-13 19:24 33.825344 -116.509133 180 480ft 0kts
27-Jul-13 19:25 33.825344 -116.509133 180 480ft 0kts
27-Jul-13 19:26 33.825343 -116.509133 180 480ft 0kts
27-Jul-13 19:27 33.825343 -116.509133 180 480ft 0kts
27-Jul-13 19:28 33.825343 -116.509133 180 480ft 0kts
27-Jul-13 19:29 33.825343 -116.509133 180 480ft 0kts
27-Jul-13 19:30 33.825343 -116.509133 180 480ft 0kts
27-Jul-13 19:31 33.825045 -116.507821 103 480ft 3kts
27-Jul-13 19:32 33.823718 -116.505183 116 480ft 10kts
27-Jul-13 19:33 33.821421 -116.502321 144 480ft 19kts
27-Jul-13 19:34 33.818769 -116.498934 46 480ft 2kts
27-Jul-13 19:35 33.818783 -116.498915 47 480ft 0kts
27-Jul-13 19:36 33.818783 -116.498915 47 480ft 0kts
27-Jul-13 19:37 33.818809 -116.498879 51 480ft 0kts
27-Jul-13 19:38 33.818816 -116.498869 51 480ft 0kts
27-Jul-13 19:39 33.818816 -116.498869 51 480ft 0kts
27-Jul-13 19:40 33.823134 -116.501658 323 480ft 86kts
27-Jul-13 19:41 33.852268 -116.526031 323 1341ft 155kts
27-Jul-13 19:42 33.887926 -116.559815 310 3078ft 159kts
27-Jul-13 19:43 33.909415 -116.601222 297 4472ft 150kts
27-Jul-13 19:44 33.927327 -116.656010 283 4517ft 197kts
27-Jul-13 19:45 33.938713 -116.719249 281 4610ft 182kts
27-Jul-13 19:46 33.948146 -116.777227 283 4628ft 173kts
27-Jul-13 19:47 33.948529 -116.834448 255 4519ft 176kts
27-Jul-13 19:48 33.923502 -116.882100 200 4516ft 179kts
27-Jul-13 19:49 33.872953 -116.885314 180 4502ft 184kts
27-Jul-13 19:50 33.820673 -116.885206 181 4512ft 192kts
27-Jul-13 19:51 33.765592 -116.884781 181 4462ft 202kts
27-Jul-13 19:52 33.708918 -116.884224 181 4460ft 204kts
27-Jul-13 19:53 33.651517 -116.883653 181 4483ft 206kts
27-Jul-13 19:54 33.593854 -116.883292 181 4554ft 205kts
27-Jul-13 19:55 33.537939 -116.883031 181 5074ft 199kts
27-Jul-13 19:56 33.481972 -116.882783 181 5725ft 203kts
27-Jul-13 19:57 33.424950 -116.882572 181 6373ft 206kts
27-Jul-13 19:58 33.365611 -116.882414 181 6571ft 223kts
27-Jul-13 19:59 33.300942 -116.882362 181 6501ft 236kts
27-Jul-13 20:00 33.234904 -116.883133 184 6510ft 238kts
27-Jul-13 20:01 33.170846 -116.899397 197 6458ft 238kts
27-Jul-13 20:02 33.108194 -116.919220 196 5803ft 226kts
27-Jul-13 20:03 33.047656 -116.936825 181 5154ft 225kts
27-Jul-13 20:04 32.986421 -116.944535 195 4598ft 220kts
27-Jul-13 20:05 32.927534 -116.962072 195 4204ft 222kts
27-Jul-13 20:06 32.867844 -116.979258 195 4051ft 216kts
27-Jul-13 20:07 32.810943 -116.995127 195 4049ft 205kts
27-Jul-13 20:08 32.756203 -117.010274 194 4044ft 193kts
27-Jul-13 20:09 32.717448 -117.027124 246 4180ft 101kts
27-Jul-13 20:10 32.713157 -117.062377 259 3639ft 127kts
27-Jul-13 20:11 32.714049 -117.105268 284 2514ft 122kts
27-Jul-13 20:12 32.722777 -117.144936 290 1315ft 121kts
27-Jul-13 20:13 32.731477 -117.180881 285 44ft 99kts
27-Jul-13 20:14 32.734527 -117.190801 20 18ft 1kts
27-Jul-13 20:15 32.734553 -117.190789 20 18ft 0kts
27-Jul-13 20:16 32.734252 -117.187937 106 18ft 34kts
27-Jul-13 20:17 32.731873 -117.177141 83 18ft 23kts
27-Jul-13 20:18 32.731844 -117.175919 233 18ft 0kts
27-Jul-13 20:19 32.731844 -117.175919 233 18ft 0kts

Navigation Log

Ident Type
Flight plan parsing failed, navigation log unavailable